Brunette Downs, Australia
Current Conditions -  °F | °C
As of 1:00 PM on Thursday 27 Nov 2014 (Local Time) from YTNK Reporting Station
Broken Clouds Broken Clouds  
Wind Chill: 95°   Ceiling: 11000
Heat Index: 95°   Visibility: 6mi
Dew Point: 57°   Wind: 8mph
Humidity: 28%   Direction: 120°ESE
Pressure: 29.83"   Gusts: NA
Location:  18.63°S, 136.03°E
Report Text: YTNK 270400Z AUTO 12007KT 9999 // BKN110 35/14 Q1010
Loading
Personal Weather Stations






























Interactive Weather Map New forecast layout! Learn more

10-Day Weather Forecast

Advertisements
Track Severe Weather on mobile